Highland Beach, Florida
Current Conditions -  °F | °C
As of 10:47 PM on Sunday 19 Oct 2014 (Local Time) from KBCT Reporting Station
Scattered Clouds Scattered Clouds  
Wind Chill: 77°   Ceiling: Unl
Heat Index: 79°   Visibility: 10mi
Dew Point: 64°   Wind: 6mph
Humidity: 65%   Direction: 90°E
Pressure: 30.03"   Gusts: NA
Location:  26.4095°N, 80.0961°W
Report Text: KBCT 200247Z 09005KT 10SM SCT035 25/18 A3003 RMK LAST
Loading
Personal Weather Stations






























Interactive Weather Map
Tropical Storm Tracking
New forecast layout! Learn more

10-Day Weather Forecast

Advertisements
Track Severe Weather on mobile